sensor_id;sensor_type;location;lat;lon;timestamp;pressure;altitude;pressure_sealevel;temperature;humidity
69796;BME280;57073;45.650;9.612;2023-11-22T00:00:35;98771.97;;;6.76;61.78
69796;BME280;57073;45.650;9.612;2023-11-22T00:05:35;98777.47;;;6.82;61.76
69796;BME280;57073;45.650;9.612;2023-11-22T00:10:36;98758.94;;;6.80;61.43
69796;BME280;57073;45.650;9.612;2023-11-22T00:15:36;98758.44;;;6.71;61.18
69796;BME280;57073;45.650;9.612;2023-11-22T00:20:36;98744.66;;;6.68;61.24
69796;BME280;57073;45.650;9.612;2023-11-22T00:25:37;98752.31;;;6.64;61.13
69796;BME280;57073;45.650;9.612;2023-11-22T00:30:37;98746.38;;;6.62;61.11
69796;BME280;57073;45.650;9.612;2023-11-22T00:35:38;98742.06;;;6.61;60.69
69796;BME280;57073;45.650;9.612;2023-11-22T00:40:38;98736.56;;;6.56;60.72
69796;BME280;57073;45.650;9.612;2023-11-22T00:45:38;98742.16;;;6.54;60.61
69796;BME280;57073;45.650;9.612;2023-11-22T00:50:39;98741.63;;;6.46;60.55
69796;BME280;57073;45.650;9.612;2023-11-22T00:55:39;98742.81;;;6.50;60.11
69796;BME280;57073;45.650;9.612;2023-11-22T01:00:40;98734.09;;;6.54;60.09
69796;BME280;57073;45.650;9.612;2023-11-22T01:05:40;98741.19;;;6.49;60.08
69796;BME280;57073;45.650;9.612;2023-11-22T01:10:42;98744.22;;;6.52;59.49
69796;BME280;57073;45.650;9.612;2023-11-22T01:15:43;98725.56;;;6.46;59.24
69796;BME280;57073;45.650;9.612;2023-11-22T01:20:44;98733.00;;;6.44;59.48
69796;BME280;57073;45.650;9.612;2023-11-22T01:25:45;98727.47;;;6.38;59.65
69796;BME280;57073;45.650;9.612;2023-11-22T01:30:45;98715.81;;;6.33;59.19
69796;BME280;57073;45.650;9.612;2023-11-22T01:35:46;98716.03;;;6.31;59.14
69796;BME280;57073;45.650;9.612;2023-11-22T01:40:47;98707.19;;;6.31;59.32
69796;BME280;57073;45.650;9.612;2023-11-22T01:45:47;98704.72;;;6.29;58.48
69796;BME280;57073;45.650;9.612;2023-11-22T01:50:48;98704.66;;;6.17;58.56
69796;BME280;57073;45.650;9.612;2023-11-22T01:55:49;98698.94;;;6.14;58.79
69796;BME280;57073;45.650;9.612;2023-11-22T02:00:50;98702.84;;;6.11;58.40
69796;BME280;57073;45.650;9.612;2023-11-22T02:05:52;98705.31;;;6.13;58.15
69796;BME280;57073;45.650;9.612;2023-11-22T02:11:01;98701.88;;;6.06;58.39
69796;BME280;57073;45.650;9.612;2023-11-22T02:16:04;98708.91;;;6.07;58.34
69796;BME280;57073;45.650;9.612;2023-11-22T02:21:06;98694.16;;;5.97;58.74
69796;BME280;57073;45.650;9.612;2023-11-22T02:26:06;98689.84;;;5.96;59.63
69796;BME280;57073;45.650;9.612;2023-11-22T02:31:06;98690.50;;;5.92;60.04
69796;BME280;57073;45.650;9.612;2023-11-22T02:36:07;98696.34;;;5.82;59.98
69796;BME280;57073;45.650;9.612;2023-11-22T02:41:08;98689.91;;;5.90;59.23
69796;BME280;57073;45.650;9.612;2023-11-22T02:46:09;98698.72;;;5.72;59.79
69796;BME280;57073;45.650;9.612;2023-11-22T02:51:10;98697.31;;;5.69;60.54
69796;BME280;57073;45.650;9.612;2023-11-22T02:56:11;98697.31;;;5.69;60.04
69796;BME280;57073;45.650;9.612;2023-11-22T03:01:12;98705.50;;;5.49;60.67
69796;BME280;57073;45.650;9.612;2023-11-22T03:06:12;98699.09;;;5.50;59.66
69796;BME280;57073;45.650;9.612;2023-11-22T03:11:12;98698.34;;;5.43;60.75
69796;BME280;57073;45.650;9.612;2023-11-22T03:16:13;98696.41;;;5.25;60.73
69796;BME280;57073;45.650;9.612;2023-11-22T03:21:13;98701.25;;;5.35;59.93
69796;BME280;57073;45.650;9.612;2023-11-22T03:26:14;98699.97;;;5.44;61.10
69796;BME280;57073;45.650;9.612;2023-11-22T03:31:14;98701.69;;;5.32;61.04
69796;BME280;57073;45.650;9.612;2023-11-22T03:36:15;98701.03;;;5.43;60.37
69796;BME280;57073;45.650;9.612;2023-11-22T03:41:16;98702.66;;;5.44;60.27
69796;BME280;57073;45.650;9.612;2023-11-22T03:46:19;98702.44;;;5.39;60.93
69796;BME280;57073;45.650;9.612;2023-11-22T03:51:20;98707.41;;;5.42;60.75
69796;BME280;57073;45.650;9.612;2023-11-22T03:56:20;98713.13;;;5.39;60.51
69796;BME280;57073;45.650;9.612;2023-11-22T04:01:21;98718.63;;;5.19;61.20
69796;BME280;57073;45.650;9.612;2023-11-22T04:06:21;98734.84;;;5.24;61.22
69796;BME280;57073;45.650;9.612;2023-11-22T04:11:23;98737.47;;;5.31;60.91
69796;BME280;57073;45.650;9.612;2023-11-22T04:16:23;98729.06;;;5.27;61.04
69796;BME280;57073;45.650;9.612;2023-11-22T04:21:24;98730.06;;;5.33;60.34
69796;BME280;57073;45.650;9.612;2023-11-22T04:26:24;98742.66;;;5.25;61.48
69796;BME280;57073;45.650;9.612;2023-11-22T04:31:25;98752.47;;;5.32;60.35
69796;BME280;57073;45.650;9.612;2023-11-22T04:36:25;98756.41;;;5.29;61.04
69796;BME280;57073;45.650;9.612;2023-11-22T04:41:25;98752.28;;;5.26;60.04
69796;BME280;57073;45.650;9.612;2023-11-22T04:46:26;98751.06;;;5.29;60.85
69796;BME280;57073;45.650;9.612;2023-11-22T04:51:26;98767.13;;;5.22;60.34
69796;BME280;57073;45.650;9.612;2023-11-22T04:56:29;98773.75;;;5.20;60.68
69796;BME280;57073;45.650;9.612;2023-11-22T05:01:33;98786.34;;;5.06;60.67
69796;BME280;57073;45.650;9.612;2023-11-22T05:06:33;98795.34;;;5.12;61.43
69796;BME280;57073;45.650;9.612;2023-11-22T05:11:34;98803.59;;;5.10;61.65
69796;BME280;57073;45.650;9.612;2023-11-22T05:16:34;98806.22;;;5.17;60.63
69796;BME280;57073;45.650;9.612;2023-11-22T05:21:34;98813.47;;;5.03;61.52
69796;BME280;57073;45.650;9.612;2023-11-22T05:26:35;98821.09;;;5.06;61.60
69796;BME280;57073;45.650;9.612;2023-11-22T05:31:36;98826.88;;;4.96;61.24
69796;BME280;57073;45.650;9.612;2023-11-22T05:36:37;98832.59;;;5.06;61.12
69796;BME280;57073;45.650;9.612;2023-11-22T05:41:38;98841.28;;;4.95;61.61
69796;BME280;57073;45.650;9.612;2023-11-22T05:46:38;98853.56;;;5.03;61.39
69796;BME280;57073;45.650;9.612;2023-11-22T05:51:39;98861.97;;;5.06;60.82
69796;BME280;57073;45.650;9.612;2023-11-22T05:56:39;98865.09;;;5.03;61.09
69796;BME280;57073;45.650;9.612;2023-11-22T06:01:39;98877.81;;;5.08;61.29
69796;BME280;57073;45.650;9.612;2023-11-22T06:06:40;98877.41;;;5.04;61.30
69796;BME280;57073;45.650;9.612;2023-11-22T06:11:41;98883.53;;;5.18;61.51
69796;BME280;57073;45.650;9.612;2023-11-22T06:16:42;98896.66;;;5.26;61.12
69796;BME280;57073;45.650;9.612;2023-11-22T06:21:42;98900.38;;;5.19;61.12
69796;BME280;57073;45.650;9.612;2023-11-22T06:26:43;98908.00;;;5.22;61.17
69796;BME280;57073;45.650;9.612;2023-11-22T06:31:46;98916.41;;;5.32;60.81
69796;BME280;57073;45.650;9.612;2023-11-22T06:36:46;98920.09;;;5.24;60.74
69796;BME280;57073;45.650;9.612;2023-11-22T06:41:46;98926.84;;;5.34;60.79
69796;BME280;57073;45.650;9.612;2023-11-22T06:46:47;98933.22;;;5.46;60.36
69796;BME280;57073;45.650;9.612;2023-11-22T06:51:48;98939.78;;;5.50;59.84
69796;BME280;57073;45.650;9.612;2023-11-22T06:56:48;98949.25;;;5.53;60.76
69796;BME280;57073;45.650;9.612;2023-11-22T07:01:50;98949.03;;;5.54;61.16
69796;BME280;57073;45.650;9.612;2023-11-22T07:06:50;98950.72;;;5.87;61.12
69796;BME280;57073;45.650;9.612;2023-11-22T07:11:51;98950.56;;;6.14;60.32
69796;BME280;57073;45.650;9.612;2023-11-22T07:16:52;98963.56;;;6.35;59.17
69796;BME280;57073;45.650;9.612;2023-11-22T07:21:52;98979.97;;;6.77;58.65
69796;BME280;57073;45.650;9.612;2023-11-22T07:26:53;98978.38;;;7.13;57.44
69796;BME280;57073;45.650;9.612;2023-11-22T07:31:54;98984.69;;;7.63;56.20
69796;BME280;57073;45.650;9.612;2023-11-22T07:36:56;98994.97;;;7.96;55.94
69796;BME280;57073;45.650;9.612;2023-11-22T07:41:56;99007.34;;;8.27;54.87
69796;BME280;57073;45.650;9.612;2023-11-22T07:46:57;99017.59;;;8.49;53.83
69796;BME280;57073;45.650;9.612;2023-11-22T07:51:59;99015.84;;;8.97;54.39
69796;BME280;57073;45.650;9.612;2023-11-22T07:57:00;99031.97;;;9.08;53.02
69796;BME280;57073;45.650;9.612;2023-11-22T08:02:01;99041.47;;;9.11;52.45
69796;BME280;57073;45.650;9.612;2023-11-22T08:07:01;99040.41;;;9.48;52.91
69796;BME280;57073;45.650;9.612;2023-11-22T08:12:02;99052.16;;;9.70;52.38
69796;BME280;57073;45.650;9.612;2023-11-22T08:17:04;99056.63;;;9.76;51.88
69796;BME280;57073;45.650;9.612;2023-11-22T08:22:06;99067.34;;;10.00;52.38
69796;BME280;57073;45.650;9.612;2023-11-22T08:27:06;99058.28;;;10.06;52.23
69796;BME280;57073;45.650;9.612;2023-11-22T08:32:07;99060.81;;;10.24;51.67
69796;BME280;57073;45.650;9.612;2023-11-22T08:37:08;99072.09;;;10.50;51.36
69796;BME280;57073;45.650;9.612;2023-11-22T08:42:08;99073.94;;;10.61;50.31
69796;BME280;57073;45.650;9.612;2023-11-22T08:47:09;99073.94;;;10.61;49.81
69796;BME280;57073;45.650;9.612;2023-11-22T08:52:10;99076.78;;;10.72;49.51
69796;BME280;57073;45.650;9.612;2023-11-22T08:57:13;99080.16;;;10.79;48.30
69796;BME280;57073;45.650;9.612;2023-11-22T09:02:14;99094.06;;;10.88;48.99
69796;BME280;57073;45.650;9.612;2023-11-22T09:07:15;99114.53;;;10.72;49.04
69796;BME280;57073;45.650;9.612;2023-11-22T09:12:16;99110.13;;;10.37;48.28
69796;BME280;57073;45.650;9.612;2023-11-22T09:17:19;99119.84;;;10.26;48.22
69796;BME280;57073;45.650;9.612;2023-11-22T09:22:20;99129.31;;;10.29;49.35
69796;BME280;57073;45.650;9.612;2023-11-22T09:27:21;99120.19;;;10.30;49.45
69796;BME280;57073;45.650;9.612;2023-11-22T09:32:22;99131.69;;;10.37;49.25
69796;BME280;57073;45.650;9.612;2023-11-22T09:37:23;99133.00;;;10.34;49.24
69796;BME280;57073;45.650;9.612;2023-11-22T09:42:25;99147.22;;;10.47;50.51
69796;BME280;57073;45.650;9.612;2023-11-22T09:47:28;99148.59;;;10.61;50.82
69796;BME280;57073;45.650;9.612;2023-11-22T09:52:33;99150.69;;;10.71;50.59
69796;BME280;57073;45.650;9.612;2023-11-22T09:57:36;99145.06;;;10.72;50.53
69796;BME280;57073;45.650;9.612;2023-11-22T10:02:40;99149.47;;;10.78;50.73
69796;BME280;57073;45.650;9.612;2023-11-22T10:07:41;99167.38;;;10.85;51.07
69796;BME280;57073;45.650;9.612;2023-11-22T10:12:44;99163.63;;;10.86;51.17
69796;BME280;57073;45.650;9.612;2023-11-22T10:17:54;99169.94;;;10.91;50.35
69796;BME280;57073;45.650;9.612;2023-11-22T10:22:56;99167.00;;;10.93;50.70
69796;BME280;57073;45.650;9.612;2023-11-22T10:27:57;99167.00;;;10.93;49.99
69796;BME280;57073;45.650;9.612;2023-11-22T10:32:58;99173.88;;;11.00;50.19
69796;BME280;57073;45.650;9.612;2023-11-22T10:37:59;99165.63;;;11.07;49.65
69796;BME280;57073;45.650;9.612;2023-11-22T10:43:03;99178.78;;;11.04;48.53
69796;BME280;57073;45.650;9.612;2023-11-22T10:48:03;99169.81;;;11.15;49.96
69796;BME280;57073;45.650;9.612;2023-11-22T10:53:07;99189.28;;;11.17;49.14
69796;BME280;57073;45.650;9.612;2023-11-22T10:58:13;99180.94;;;11.18;49.64
69796;BME280;57073;45.650;9.612;2023-11-22T11:03:17;99199.69;;;11.25;49.16
69796;BME280;57073;45.650;9.612;2023-11-22T11:08:20;99194.19;;;11.20;48.53
69796;BME280;57073;45.650;9.612;2023-11-22T11:13:22;99203.34;;;11.19;48.54
69796;BME280;57073;45.650;9.612;2023-11-22T11:18:24;99207.53;;;11.27;48.52
69796;BME280;57073;45.650;9.612;2023-11-22T11:23:26;99212.53;;;11.35;48.20
69796;BME280;57073;45.650;9.612;2023-11-22T11:28:41;99214.50;;;11.40;48.57
69796;BME280;57073;45.650;9.612;2023-11-22T11:38:49;99195.84;;;11.38;47.78
69796;BME280;57073;45.650;9.612;2023-11-22T11:43:52;99201.06;;;11.45;48.02
69796;BME280;57073;45.650;9.612;2023-11-22T11:48:53;99199.53;;;11.49;47.93
69796;BME280;57073;45.650;9.612;2023-11-22T11:53:55;99204.69;;;11.50;48.21
69796;BME280;57073;45.650;9.612;2023-11-22T11:58:56;99219.69;;;11.58;47.88
69796;BME280;57073;45.650;9.612;2023-11-22T12:04:01;99215.81;;;11.54;47.76
69796;BME280;57073;45.650;9.612;2023-11-22T12:09:02;99205.84;;;11.54;47.48
69796;BME280;57073;45.650;9.612;2023-11-22T12:14:04;99213.38;;;11.52;46.86
69796;BME280;57073;45.650;9.612;2023-11-22T12:19:04;99219.09;;;11.56;46.94
69796;BME280;57073;45.650;9.612;2023-11-22T12:24:06;99235.66;;;11.60;47.40
69796;BME280;57073;45.650;9.612;2023-11-22T12:29:07;99237.59;;;11.64;47.64
69796;BME280;57073;45.650;9.612;2023-11-22T12:34:09;99229.13;;;11.72;47.87
69796;BME280;57073;45.650;9.612;2023-11-22T12:39:11;99226.09;;;11.69;47.49
69796;BME280;57073;45.650;9.612;2023-11-22T12:44:17;99217.13;;;11.68;47.49
69796;BME280;57073;45.650;9.612;2023-11-22T12:49:18;99219.94;;;11.73;47.51
69796;BME280;57073;45.650;9.612;2023-11-22T12:54:19;99219.44;;;11.76;46.93
69796;BME280;57073;45.650;9.612;2023-11-22T12:59:21;99218.72;;;11.81;47.24
69796;BME280;57073;45.650;9.612;2023-11-22T13:04:22;99207.06;;;11.81;46.72
69796;BME280;57073;45.650;9.612;2023-11-22T13:09:22;99215.34;;;11.91;46.63
69796;BME280;57073;45.650;9.612;2023-11-22T13:14:22;99213.97;;;11.88;45.46
69796;BME280;57073;45.650;9.612;2023-11-22T13:19:23;99213.97;;;11.71;44.89
69796;BME280;57073;45.650;9.612;2023-11-22T13:24:25;99218.19;;;11.84;45.47
69796;BME280;57073;45.650;9.612;2023-11-22T13:29:25;99218.53;;;11.88;45.47
69796;BME280;57073;45.650;9.612;2023-11-22T13:34:26;99212.63;;;11.91;45.48
69796;BME280;57073;45.650;9.612;2023-11-22T13:39:26;99222.88;;;11.89;46.20
69796;BME280;57073;45.650;9.612;2023-11-22T13:44:26;99231.22;;;11.87;45.81
69796;BME280;57073;45.650;9.612;2023-11-22T13:49:27;99212.06;;;11.89;45.51
69796;BME280;57073;45.650;9.612;2023-11-22T13:54:27;99224.16;;;11.86;45.42
69796;BME280;57073;45.650;9.612;2023-11-22T13:59:27;99223.03;;;11.82;45.63
69796;BME280;57073;45.650;9.612;2023-11-22T14:04:28;99227.38;;;11.83;45.35
69796;BME280;57073;45.650;9.612;2023-11-22T14:09:29;99234.84;;;11.76;45.08
69796;BME280;57073;45.650;9.612;2023-11-22T14:14:29;99247.69;;;11.86;45.29
69796;BME280;57073;45.650;9.612;2023-11-22T14:19:30;99238.75;;;11.85;44.66
69796;BME280;57073;45.650;9.612;2023-11-22T14:24:30;99235.09;;;11.74;44.50
69796;BME280;57073;45.650;9.612;2023-11-22T14:29:37;99255.13;;;11.79;44.79
69796;BME280;57073;45.650;9.612;2023-11-22T14:34:37;99260.88;;;11.65;44.59
69796;BME280;57073;45.650;9.612;2023-11-22T14:39:39;99256.44;;;11.59;43.92
69796;BME280;57073;45.650;9.612;2023-11-22T14:44:40;99281.31;;;11.61;44.05
69796;BME280;57073;45.650;9.612;2023-11-22T14:49:41;99297.78;;;11.60;44.28
69796;BME280;57073;45.650;9.612;2023-11-22T14:54:42;99292.97;;;11.50;43.70
69796;BME280;57073;45.650;9.612;2023-11-22T14:59:44;99302.03;;;11.44;43.92
69796;BME280;57073;45.650;9.612;2023-11-22T15:04:45;99302.72;;;11.51;44.50
69796;BME280;57073;45.650;9.612;2023-11-22T15:09:47;99305.19;;;11.52;44.34
69796;BME280;57073;45.650;9.612;2023-11-22T15:14:47;99318.09;;;11.50;44.40
69796;BME280;57073;45.650;9.612;2023-11-22T15:19:48;99311.19;;;11.43;44.85
69796;BME280;57073;45.650;9.612;2023-11-22T15:24:48;99326.47;;;11.37;45.07
69796;BME280;57073;45.650;9.612;2023-11-22T15:29:50;99336.13;;;11.33;45.24
69796;BME280;57073;45.650;9.612;2023-11-22T15:34:50;99340.75;;;11.21;45.56
69796;BME280;57073;45.650;9.612;2023-11-22T15:39:50;99355.56;;;11.18;45.06
69796;BME280;57073;45.650;9.612;2023-11-22T15:44:51;99375.38;;;11.12;45.87
69796;BME280;57073;45.650;9.612;2023-11-22T15:49:51;99391.03;;;10.98;46.09
69796;BME280;57073;45.650;9.612;2023-11-22T15:54:54;99398.41;;;10.79;46.72
69796;BME280;57073;45.650;9.612;2023-11-22T15:59:55;99394.09;;;10.78;46.28
69796;BME280;57073;45.650;9.612;2023-11-22T16:04:55;99407.81;;;10.65;47.16
69796;BME280;57073;45.650;9.612;2023-11-22T16:09:55;99425.38;;;10.55;47.01
69796;BME280;57073;45.650;9.612;2023-11-22T16:14:56;99427.50;;;10.53;46.91
69796;BME280;57073;45.650;9.612;2023-11-22T16:19:57;99440.50;;;10.33;47.65
69796;BME280;57073;45.650;9.612;2023-11-22T16:25:00;99451.50;;;10.31;47.61
69796;BME280;57073;45.650;9.612;2023-11-22T16:30:01;99461.13;;;10.09;48.93
69796;BME280;57073;45.650;9.612;2023-11-22T16:35:03;99458.75;;;10.00;49.39
69796;BME280;57073;45.650;9.612;2023-11-22T16:40:06;99471.28;;;9.95;48.79
69796;BME280;57073;45.650;9.612;2023-11-22T16:45:09;99474.22;;;9.75;49.77
69796;BME280;57073;45.650;9.612;2023-11-22T16:50:10;99487.03;;;9.61;50.27
69796;BME280;57073;45.650;9.612;2023-11-22T16:55:11;99491.06;;;9.52;51.11
69796;BME280;57073;45.650;9.612;2023-11-22T17:00:13;99510.34;;;9.49;50.31
69796;BME280;57073;45.650;9.612;2023-11-22T17:05:18;99515.16;;;9.46;51.71
69796;BME280;57073;45.650;9.612;2023-11-22T17:10:19;99518.66;;;9.47;51.27
69796;BME280;57073;45.650;9.612;2023-11-22T17:15:22;99535.50;;;9.42;50.88
69796;BME280;57073;45.650;9.612;2023-11-22T17:20:22;99523.66;;;9.25;52.23
69796;BME280;57073;45.650;9.612;2023-11-22T17:25:22;99532.28;;;9.08;52.79
69796;BME280;57073;45.650;9.612;2023-11-22T17:30:23;99536.94;;;9.20;52.08
69796;BME280;57073;45.650;9.612;2023-11-22T17:35:24;99543.25;;;9.32;52.49
69796;BME280;57073;45.650;9.612;2023-11-22T17:40:25;99559.97;;;9.16;53.21
69796;BME280;57073;45.650;9.612;2023-11-22T17:45:25;99578.47;;;9.05;53.03
69796;BME280;57073;45.650;9.612;2023-11-22T17:50:27;99600.94;;;8.86;53.75
69796;BME280;57073;45.650;9.612;2023-11-22T17:55:27;99616.13;;;9.05;53.05
69796;BME280;57073;45.650;9.612;2023-11-22T18:00:28;99617.78;;;9.06;53.16
69796;BME280;57073;45.650;9.612;2023-11-22T18:05:29;99631.75;;;8.90;53.40
69796;BME280;57073;45.650;9.612;2023-11-22T18:10:30;99627.06;;;8.79;53.98
69796;BME280;57073;45.650;9.612;2023-11-22T18:15:30;99639.13;;;8.63;54.96
69796;BME280;57073;45.650;9.612;2023-11-22T18:20:31;99640.88;;;8.44;55.22
69796;BME280;57073;45.650;9.612;2023-11-22T18:25:31;99647.94;;;8.38;55.19
69796;BME280;57073;45.650;9.612;2023-11-22T18:30:32;99637.78;;;8.40;55.43
69796;BME280;57073;45.650;9.612;2023-11-22T18:35:32;99654.56;;;8.36;54.97
69796;BME280;57073;45.650;9.612;2023-11-22T18:40:33;99655.50;;;8.55;55.23
69796;BME280;57073;45.650;9.612;2023-11-22T18:45:33;99668.22;;;8.27;55.68
69796;BME280;57073;45.650;9.612;2023-11-22T18:50:34;99677.47;;;8.45;55.13
69796;BME280;57073;45.650;9.612;2023-11-22T18:55:34;99680.53;;;8.55;54.08
69796;BME280;57073;45.650;9.612;2023-11-22T19:00:35;99667.28;;;8.60;54.09
69796;BME280;57073;45.650;9.612;2023-11-22T19:05:35;99683.25;;;8.42;55.28
69796;BME280;57073;45.650;9.612;2023-11-22T19:10:36;99687.69;;;8.29;54.79
69796;BME280;57073;45.650;9.612;2023-11-22T19:15:43;99689.16;;;8.12;56.09
69796;BME280;57073;45.650;9.612;2023-11-22T19:20:45;99705.31;;;7.92;56.48
69796;BME280;57073;45.650;9.612;2023-11-22T19:25:46;99708.81;;;7.92;56.88
69796;BME280;57073;45.650;9.612;2023-11-22T19:30:47;99716.91;;;7.79;56.73
69796;BME280;57073;45.650;9.612;2023-11-22T19:35:48;99717.94;;;7.65;57.39
69796;BME280;57073;45.650;9.612;2023-11-22T19:40:49;99732.81;;;7.81;56.82
69796;BME280;57073;45.650;9.612;2023-11-22T19:45:49;99748.09;;;7.73;57.09
69796;BME280;57073;45.650;9.612;2023-11-22T19:50:53;99762.53;;;7.72;56.67
69796;BME280;57073;45.650;9.612;2023-11-22T19:55:53;99761.69;;;7.59;56.66
69796;BME280;57073;45.650;9.612;2023-11-22T20:00:55;99777.41;;;7.68;56.45
69796;BME280;57073;45.650;9.612;2023-11-22T20:05:55;99786.09;;;7.77;56.08
69796;BME280;57073;45.650;9.612;2023-11-22T20:10:55;99793.72;;;7.67;56.13
69796;BME280;57073;45.650;9.612;2023-11-22T20:15:56;99790.63;;;7.70;55.85
69796;BME280;57073;45.650;9.612;2023-11-22T20:20:57;99787.13;;;7.63;56.31
69796;BME280;57073;45.650;9.612;2023-11-22T20:25:58;99788.94;;;7.42;57.48
69796;BME280;57073;45.650;9.612;2023-11-22T20:30:58;99803.00;;;7.44;57.16
69796;BME280;57073;45.650;9.612;2023-11-22T20:35:59;99808.97;;;7.40;56.66
69796;BME280;57073;45.650;9.612;2023-11-22T20:40:59;99814.66;;;7.23;57.08
69796;BME280;57073;45.650;9.612;2023-11-22T20:45:59;99823.31;;;7.18;57.67
69796;BME280;57073;45.650;9.612;2023-11-22T20:51:02;99839.19;;;7.20;57.17
69796;BME280;57073;45.650;9.612;2023-11-22T20:56:03;99831.81;;;7.29;57.11
69796;BME280;57073;45.650;9.612;2023-11-22T21:01:04;99831.19;;;7.27;56.78
69796;BME280;57073;45.650;9.612;2023-11-22T21:06:06;99812.88;;;7.37;56.21
69796;BME280;57073;45.650;9.612;2023-11-22T21:11:06;99815.75;;;7.35;56.03
69796;BME280;57073;45.650;9.612;2023-11-22T21:16:06;99816.09;;;7.26;56.37
69796;BME280;57073;45.650;9.612;2023-11-22T21:21:11;99823.09;;;7.13;56.30
69796;BME280;57073;45.650;9.612;2023-11-22T21:26:15;99824.78;;;7.21;55.77
69796;BME280;57073;45.650;9.612;2023-11-22T21:31:16;99832.00;;;7.27;55.47
69796;BME280;57073;45.650;9.612;2023-11-22T21:36:19;99854.91;;;7.23;55.77
69796;BME280;57073;45.650;9.612;2023-11-22T21:41:19;99857.78;;;7.22;55.48
69796;BME280;57073;45.650;9.612;2023-11-22T21:46:20;99868.75;;;7.27;55.56
69796;BME280;57073;45.650;9.612;2023-11-22T21:51:28;99873.84;;;7.15;56.24
69796;BME280;57073;45.650;9.612;2023-11-22T21:56:29;99860.84;;;7.18;56.31
69796;BME280;57073;45.650;9.612;2023-11-22T22:01:29;99867.22;;;7.11;56.52
69796;BME280;57073;45.650;9.612;2023-11-22T22:06:30;99871.06;;;6.95;57.19
69796;BME280;57073;45.650;9.612;2023-11-22T22:11:30;99869.47;;;7.07;56.45
69796;BME280;57073;45.650;9.612;2023-11-22T22:16:31;99885.09;;;6.97;55.94
69796;BME280;57073;45.650;9.612;2023-11-22T22:21:31;99877.09;;;7.04;55.70
69796;BME280;57073;45.650;9.612;2023-11-22T22:26:32;99867.59;;;7.01;55.93
69796;BME280;57073;45.650;9.612;2023-11-22T22:31:32;99874.03;;;7.07;56.22
69796;BME280;57073;45.650;9.612;2023-11-22T22:36:33;99890.69;;;7.02;55.81
69796;BME280;57073;45.650;9.612;2023-11-22T22:41:33;99884.41;;;6.82;56.24
69796;BME280;57073;45.650;9.612;2023-11-22T22:46:33;99883.09;;;6.71;56.06
69796;BME280;57073;45.650;9.612;2023-11-22T22:51:34;99881.06;;;6.73;54.92
69796;BME280;57073;45.650;9.612;2023-11-22T22:56:34;99881.66;;;6.68;53.77
69796;BME280;57073;45.650;9.612;2023-11-22T23:01:34;99883.03;;;6.57;53.61
69796;BME280;57073;45.650;9.612;2023-11-22T23:06:35;99874.69;;;6.46;52.89
69796;BME280;57073;45.650;9.612;2023-11-22T23:11:37;99873.69;;;6.47;52.52
69796;BME280;57073;45.650;9.612;2023-11-22T23:16:37;99877.97;;;6.41;52.12
69796;BME280;57073;45.650;9.612;2023-11-22T23:21:38;99872.41;;;6.43;51.78
69796;BME280;57073;45.650;9.612;2023-11-22T23:26:38;99855.88;;;6.32;51.39
69796;BME280;57073;45.650;9.612;2023-11-22T23:31:39;99852.88;;;6.20;51.01
69796;BME280;57073;45.650;9.612;2023-11-22T23:36:41;99844.16;;;6.12;51.44
69796;BME280;57073;45.650;9.612;2023-11-22T23:41:41;99857.94;;;6.09;49.76
69796;BME280;57073;45.650;9.612;2023-11-22T23:46:42;99856.44;;;5.99;50.25
69796;BME280;57073;45.650;9.612;2023-11-22T23:51:42;99858.63;;;6.17;49.33
69796;BME280;57073;45.650;9.612;2023-11-22T23:56:42;99849.50;;;6.12;49.38
